Portada
METAR-TAF:

METAR-TAF

Aeropuertos :

Teherán, Irán

Aeropuerto Internacional de Mehrabad

latitud: 35-41N, longitud: 051-21E, altitud: 1204 m

Observación

El informe se hizo hace 32 minutos, a las 09:00 UTC
Viento 6 kt del sureste
Temperatura 17°C
Humedad 25%
Presión 1020 hPa
Visibilidad: 6000 m

METAR: OIII 190900Z 14006KT 6000 NSC 17/M03 Q1019 A3011 NOSIG

Hora: 14:02 (09:32 UTC)

Pronóstico

El informe se hizo hace 4 horas y 22 minutos, a las 05:10 UTC
Pronóstico válido del 19 a las 06 UTC al 20 a las 12 UTC
Viento 8 kt del oeste
Visibilidad: 7000 m

TAF: OIII 190510Z 1906/2012 26004MPS 7000 NSC

Observaciones y pronósticos meteorológicos de más de 4000 aeropuertos (mensajes METAR y TAF).

Los puntos amarillos y rojos representan las estaciones disponibles.

Ponga el ratón en el punto deseado para ver el nombre de la estación.

Haga clic para ver las observaciones y los pronósticos meteorológicos.

Para cambiar el mapa : haga clic en los botones verdes con una cruz de color negro para hacer un zoom, en el botón verde con un guión para alejar o en las flechas verdes para mapas adyacentes.


METAR-TAF: